Time;durP1;ratioP1;P1;durP2;ratioP2;P2;SDS_P1;SDS_P2;PMS_P1;PMS_P2;Temp;Humidity;BMP_temperature;BMP_pressure;BME280_temperature;BME280_humidity;BME280_pressure;Samples;Min_cycle;Max_cycle;Signal;HPM_P1;HPM_P2
2024/04/20 00:00:26;;;;;;;12.77;3.30;;;6.40;84.90;;;;;;5430741;26;20476;-81
2024/04/20 00:02:52;;;;;;;10.65;2.60;;;6.40;85.50;;;;;;5420516;26;20092;-80
2024/04/20 00:05:18;;;;;;;12.23;2.42;;;6.30;85.70;;;;;;5443489;26;20129;-82
2024/04/20 00:07:47;;;;;;;9.35;2.80;;;6.30;85.70;;;;;;5432901;26;20013;-81
2024/04/20 00:10:13;;;;;;;11.32;2.78;;;6.30;85.60;;;;;;5435696;26;19998;-82
2024/04/20 00:12:39;;;;;;;10.88;2.67;;;6.30;85.50;;;;;;5430762;26;20042;-82
2024/04/20 00:15:05;;;;;;;12.00;3.28;;;6.30;85.20;;;;;;5428399;26;20014;-84
2024/04/20 00:17:31;;;;;;;11.85;2.65;;;6.40;84.60;;;;;;5433123;26;19995;-82
2024/04/20 00:19:57;;;;;;;11.00;2.50;;;6.40;83.90;;;;;;5402988;26;20572;-81
2024/04/20 00:22:22;;;;;;;10.68;2.45;;;6.40;83.40;;;;;;5436626;26;20003;-83
2024/04/20 00:24:51;;;;;;;11.45;2.67;;;6.40;83.60;;;;;;5434499;26;19994;-84
2024/04/20 00:27:17;;;;;;;12.40;3.00;;;6.40;83.70;;;;;;5431161;26;19998;-81
2024/04/20 00:29:43;;;;;;;14.73;3.15;;;6.40;84.00;;;;;;5433616;26;20002;-81
2024/04/20 00:32:09;;;;;;;13.63;3.17;;;6.40;84.20;;;;;;5435520;26;19999;-84
2024/04/20 00:34:35;;;;;;;11.48;2.58;;;6.40;84.30;;;;;;5435993;26;20014;-83
2024/04/20 00:37:02;;;;;;;11.43;2.92;;;6.40;82.80;;;;;;5432742;26;20447;-84
2024/04/20 00:39:30;;;;;;;9.05;2.72;;;6.30;83.00;;;;;;5439556;26;20040;-83
2024/04/20 00:41:56;;;;;;;11.40;2.10;;;6.20;83.70;;;;;;5403927;26;20113;-82
2024/04/20 00:44:22;;;;;;;9.10;1.98;;;6.10;82.50;;;;;;5436207;26;20381;-81
2024/04/20 00:46:52;;;;;;;11.55;2.10;;;6.20;80.20;;;;;;5438244;26;20072;-85
2024/04/20 00:49:17;;;;;;;10.75;2.55;;;6.30;79.10;;;;;;5434827;26;19999;-83
2024/04/20 00:51:44;;;;;;;9.93;2.03;;;6.40;79.60;;;;;;5397008;26;20337;-83
2024/04/20 00:54:13;;;;;;;8.38;1.95;;;6.30;80.00;;;;;;5385528;26;19995;-81
2024/04/20 00:56:39;;;;;;;6.15;2.13;;;6.40;80.40;;;;;;5431359;26;20283;-83
2024/04/20 00:59:06;;;;;;;10.13;2.15;;;6.30;80.80;;;;;;5418442;26;19995;-82
2024/04/20 01:01:33;;;;;;;10.13;2.47;;;6.30;81.00;;;;;;5433220;26;20013;-83
2024/04/20 01:03:59;;;;;;;12.60;2.63;;;6.30;81.00;;;;;;5424609;26;20006;-83
2024/04/20 01:06:24;;;;;;;9.00;2.30;;;6.30;81.10;;;;;;5395740;26;19999;-82
2024/04/20 01:08:52;;;;;;;13.13;2.85;;;6.20;81.30;;;;;;5418493;26;20002;-81
2024/04/20 01:11:18;;;;;;;13.45;3.15;;;6.30;81.60;;;;;;5425400;26;20040;-83
2024/04/20 01:13:55;;;;;;;12.38;2.70;;;6.40;81.70;;;;;;5402635;26;20002;-84
2024/04/20 01:16:22;;;;;;;15.15;3.13;;;6.30;81.80;;;;;;5435131;26;20010;-85
2024/04/20 01:18:48;;;;;;;14.75;3.20;;;6.40;82.00;;;;;;5430475;26;20000;-83
2024/04/20 01:21:15;;;;;;;10.77;2.53;;;6.30;82.10;;;;;;5369137;26;20068;-82
2024/04/20 01:23:41;;;;;;;9.45;2.58;;;6.40;81.90;;;;;;5444509;26;20003;-83
2024/04/20 01:26:06;;;;;;;13.13;3.08;;;6.40;81.20;;;;;;5427987;26;20448;-87
2024/04/20 01:28:32;;;;;;;11.35;2.35;;;6.30;81.50;;;;;;5413519;26;19999;-83
2024/04/20 01:30:58;;;;;;;10.40;2.50;;;6.20;82.30;;;;;;5434281;26;20080;-82
2024/04/20 01:33:23;;;;;;;11.18;2.55;;;6.20;82.90;;;;;;5411157;26;20413;-84
2024/04/20 01:35:50;;;;;;;15.15;2.60;;;6.10;81.60;;;;;;5426550;26;20007;-82
2024/04/20 01:38:16;;;;;;;11.63;2.55;;;6.30;79.30;;;;;;5409641;26;20005;-82
2024/04/20 01:40:42;;;;;;;10.43;2.33;;;6.30;80.10;;;;;;5429754;26;19999;-82
2024/04/20 01:43:07;;;;;;;10.38;2.10;;;6.30;80.60;;;;;;5399497;26;19999;-82
2024/04/20 01:45:33;;;;;;;9.80;2.30;;;6.20;80.90;;;;;;5399903;26;20005;-84
2024/04/20 01:47:59;;;;;;;10.00;2.55;;;6.20;81.40;;;;;;5415615;26;20011;-82
2024/04/20 01:50:25;;;;;;;9.02;1.83;;;6.20;81.70;;;;;;5424963;26;20002;-82
2024/04/20 01:52:50;;;;;;;9.20;2.22;;;6.10;82.00;;;;;;5430533;26;20013;-82
2024/04/20 01:55:16;;;;;;;8.25;2.17;;;6.10;82.30;;;;;;5430169;26;19990;-80
2024/04/20 01:57:42;;;;;;;6.88;1.95;;;6.10;82.30;;;;;;5400011;26;20077;-81
2024/04/20 02:00:08;;;;;;;8.13;2.60;;;6.10;82.20;;;;;;5425287;26;20564;-81
2024/04/20 02:02:33;;;;;;;7.68;2.08;;;6.10;82.20;;;;;;5390485;26;20727;-80
2024/04/20 02:04:59;;;;;;;12.10;2.17;;;6.10;82.20;;;;;;5427211;26;19995;-81
2024/04/20 02:07:24;;;;;;;10.85;2.40;;;6.10;82.60;;;;;;5429605;26;20130;-82
2024/04/20 02:09:50;;;;;;;14.82;2.25;;;6.10;83.20;;;;;;5403841;26;19995;-82
2024/04/20 02:12:16;;;;;;;7.68;2.35;;;6.10;83.90;;;;;;5434562;26;19999;-82
2024/04/20 02:14:41;;;;;;;10.43;2.67;;;5.90;83.50;;;;;;5432214;26;20467;-82
2024/04/20 02:17:07;;;;;;;15.52;3.17;;;5.90;83.50;;;;;;5430449;26;20759;-82
2024/04/20 02:19:32;;;;;;;9.02;1.85;;;5.90;83.60;;;;;;5434097;26;19999;-81
2024/04/20 02:21:58;;;;;;;7.85;2.22;;;5.90;83.80;;;;;;5434165;26;20046;-81
2024/04/20 02:24:24;;;;;;;11.02;2.60;;;5.80;83.70;;;;;;5429922;26;20031;-84
2024/04/20 02:26:49;;;;;;;12.38;2.65;;;5.80;83.70;;;;;;5402441;26;20595;-81
2024/04/20 02:29:15;;;;;;;13.32;2.15;;;5.90;83.60;;;;;;5419509;26;20854;-81
2024/04/20 02:31:41;;;;;;;10.48;2.50;;;5.90;83.50;;;;;;5430936;26;20005;-82
2024/04/20 02:34:06;;;;;;;15.80;2.97;;;5.90;83.30;;;;;;5430126;26;20006;-82
2024/04/20 02:36:33;;;;;;;11.57;2.55;;;5.90;83.30;;;;;;5427257;26;20093;-82
2024/04/20 02:39:00;;;;;;;10.05;2.00;;;6.00;83.40;;;;;;5402284;26;20002;-80
2024/04/20 02:41:25;;;;;;;10.43;2.10;;;6.00;83.60;;;;;;5414250;26;19999;-81
2024/04/20 02:43:51;;;;;;;12.35;2.55;;;6.10;83.70;;;;;;5433473;26;19995;-80
2024/04/20 02:46:18;;;;;;;15.63;2.72;;;6.00;83.70;;;;;;5431911;26;20774;-81
2024/04/20 02:48:45;;;;;;;11.77;2.45;;;6.00;83.80;;;;;;5406386;26;19999;-81
2024/04/20 02:51:11;;;;;;;11.82;1.92;;;6.00;83.90;;;;;;5429466;26;20009;-81
2024/04/20 02:53:37;;;;;;;9.27;2.97;;;5.90;84.10;;;;;;5444908;26;19998;-81
2024/04/20 02:56:03;;;;;;;10.63;2.63;;;5.80;84.30;;;;;;5430657;26;20070;-79
2024/04/20 02:58:32;;;;;;;9.70;2.00;;;5.80;84.70;;;;;;5447986;26;20003;-80
2024/04/20 03:01:00;;;;;;;11.18;2.42;;;5.70;84.90;;;;;;5399946;26;20080;-81
2024/04/20 03:03:30;;;;;;;12.18;2.67;;;5.70;85.00;;;;;;5422117;26;20004;-80
2024/04/20 03:05:55;;;;;;;9.52;2.30;;;5.60;85.20;;;;;;5429496;26;20698;-81
2024/04/20 03:08:21;;;;;;;12.10;2.28;;;5.50;85.30;;;;;;5452649;26;20042;-80
2024/04/20 03:10:47;;;;;;;10.38;2.72;;;5.50;85.50;;;;;;5431743;26;20570;-81
2024/04/20 03:13:13;;;;;;;11.32;2.35;;;5.50;85.70;;;;;;5432844;26;20009;-81
2024/04/20 03:15:40;;;;;;;9.25;2.55;;;5.40;85.70;;;;;;5407441;26;19999;-80
2024/04/20 03:18:06;;;;;;;10.20;3.03;;;5.40;85.90;;;;;;5427899;26;19999;-81
2024/04/20 03:20:32;;;;;;;11.85;2.40;;;5.40;86.10;;;;;;5434236;26;20037;-81
2024/04/20 03:22:58;;;;;;;12.07;2.38;;;5.30;86.10;;;;;;5428429;26;20002;-80
2024/04/20 03:25:24;;;;;;;12.07;2.70;;;5.30;86.30;;;;;;5429101;26;20023;-81
2024/04/20 03:27:49;;;;;;;10.80;2.55;;;5.30;86.30;;;;;;5412627;26;20443;-82
2024/04/20 03:30:15;;;;;;;7.80;2.70;;;5.30;86.30;;;;;;5434372;26;20888;-82
2024/04/20 03:32:41;;;;;;;9.60;2.20;;;5.40;86.40;;;;;;5413250;26;20022;-80
2024/04/20 03:35:06;;;;;;;9.90;3.00;;;5.30;86.50;;;;;;5397325;26;20011;-82
2024/04/20 03:37:32;;;;;;;13.00;2.40;;;5.40;86.60;;;;;;5419521;26;20013;-80
2024/04/20 03:39:58;;;;;;;11.70;2.17;;;5.40;86.60;;;;;;5441168;26;20132;-81
2024/04/20 03:42:24;;;;;;;11.95;2.75;;;5.40;86.60;;;;;;5442914;26;20404;-80
2024/04/20 03:44:50;;;;;;;12.55;2.83;;;5.40;86.60;;;;;;5423211;26;20544;-82
2024/04/20 03:47:15;;;;;;;11.15;2.85;;;5.40;86.60;;;;;;5427902;26;20013;-81
2024/04/20 03:49:42;;;;;;;12.50;2.65;;;5.40;86.70;;;;;;5438346;26;19995;-81
2024/04/20 03:52:07;;;;;;;10.65;2.58;;;5.40;86.60;;;;;;5427230;26;19999;-81
2024/04/20 03:54:33;;;;;;;9.32;2.33;;;5.40;86.50;;;;;;5442214;26;20277;-80
2024/04/20 03:56:59;;;;;;;10.07;2.33;;;5.40;86.50;;;;;;5419872;26;20770;-81
2024/04/20 03:59:25;;;;;;;11.98;2.70;;;5.50;86.60;;;;;;5429019;26;20054;-81
2024/04/20 04:01:50;;;;;;;16.35;2.83;;;5.40;86.50;;;;;;5384045;26;20007;-82
2024/04/20 04:04:16;;;;;;;11.60;2.90;;;5.40;86.50;;;;;;5379985;26;20324;-80
2024/04/20 04:06:42;;;;;;;10.60;2.65;;;5.50;86.50;;;;;;5425312;26;19999;-81
2024/04/20 04:09:08;;;;;;;11.20;2.60;;;5.50;86.30;;;;;;5433813;26;21061;-80
2024/04/20 04:11:33;;;;;;;11.50;2.47;;;5.50;86.10;;;;;;5426435;26;20039;-80
2024/04/20 04:13:59;;;;;;;10.00;2.25;;;5.50;86.00;;;;;;5413202;26;20522;-80
2024/04/20 04:16:25;;;;;;;13.82;2.50;;;5.50;86.00;;;;;;5407612;26;20017;-80
2024/04/20 04:18:51;;;;;;;10.07;2.40;;;5.50;86.00;;;;;;5419041;26;20423;-80
2024/04/20 04:21:16;;;;;;;10.48;2.45;;;5.50;86.10;;;;;;5399275;26;19994;-80
2024/04/20 04:23:42;;;;;;;10.95;2.75;;;5.50;86.20;;;;;;5422365;26;20002;-79
2024/04/20 04:26:09;;;;;;;9.68;2.40;;;5.40;86.20;;;;;;5431185;26;20487;-80
2024/04/20 04:28:35;;;;;;;9.07;2.78;;;5.40;86.40;;;;;;5417554;26;20532;-81
2024/04/20 04:31:00;;;;;;;9.27;2.15;;;5.40;86.60;;;;;;5430129;26;20009;-80
2024/04/20 04:33:26;;;;;;;10.55;2.30;;;5.30;86.60;;;;;;5437512;26;20448;-80
2024/04/20 04:35:59;;;;;;;11.15;2.42;;;5.20;86.70;;;;;;5427369;26;20002;-80
2024/04/20 04:38:25;;;;;;;11.27;2.58;;;5.20;86.80;;;;;;5430279;26;20002;-80
2024/04/20 04:40:52;;;;;;;15.23;2.88;;;5.20;86.90;;;;;;5432233;26;20014;-80
2024/04/20 04:43:17;;;;;;;8.80;2.28;;;5.10;87.00;;;;;;5415802;26;19999;-80
2024/04/20 04:45:43;;;;;;;10.35;2.95;;;5.10;87.20;;;;;;5432901;26;20866;-80
2024/04/20 04:48:09;;;;;;;11.52;2.90;;;5.10;87.30;;;;;;5432940;26;20130;-81
2024/04/20 04:50:35;;;;;;;11.63;3.28;;;5.10;87.50;;;;;;5429682;26;20058;-80
2024/04/20 04:53:02;;;;;;;16.65;3.38;;;5.10;87.20;;;;;;5431903;26;20002;-80
2024/04/20 04:55:29;;;;;;;10.35;2.78;;;5.20;86.80;;;;;;5434314;26;19995;-79
2024/04/20 04:57:55;;;;;;;14.45;2.78;;;5.40;86.10;;;;;;5425420;26;20002;-81
2024/04/20 05:00:21;;;;;;;11.38;2.58;;;5.50;85.90;;;;;;5424369;26;20011;-81
2024/04/20 05:02:46;;;;;;;10.55;3.25;;;5.60;85.90;;;;;;5432351;26;20006;-81
2024/04/20 05:05:13;;;;;;;14.25;3.10;;;5.70;86.10;;;;;;5436371;26;20035;-81
2024/04/20 05:07:39;;;;;;;11.43;2.67;;;5.70;86.30;;;;;;5399822;26;20104;-80
2024/04/20 05:10:05;;;;;;;12.50;3.75;;;5.80;86.30;;;;;;5426474;26;20844;-81
2024/04/20 05:12:30;;;;;;;18.10;3.30;;;5.80;86.30;;;;;;5397247;26;20007;-80
2024/04/20 05:14:57;;;;;;;14.60;3.30;;;5.80;86.30;;;;;;5433552;26;20098;-80
2024/04/20 05:17:23;;;;;;;10.65;2.45;;;5.90;86.30;;;;;;5402661;26;20024;-80
2024/04/20 05:19:48;;;;;;;11.55;2.33;;;5.90;86.20;;;;;;5430299;26;20002;-80
2024/04/20 05:22:14;;;;;;;14.77;2.95;;;5.90;86.00;;;;;;5430145;26;19999;-80
2024/04/20 05:24:39;;;;;;;12.38;3.10;;;5.90;85.80;;;;;;5426351;26;20322;-80
2024/04/20 05:27:05;;;;;;;16.48;3.40;;;6.00;85.70;;;;;;5431529;26;20039;-80
2024/04/20 05:29:31;;;;;;;11.60;2.58;;;5.90;85.50;;;;;;5402714;26;20455;-81
2024/04/20 05:31:57;;;;;;;13.70;2.70;;;6.00;85.50;;;;;;5403713;26;20006;-83
2024/04/20 05:34:22;;;;;;;13.15;2.90;;;6.10;85.40;;;;;;5434891;26;19994;-80
2024/04/20 05:36:48;;;;;;;12.50;2.40;;;6.10;85.40;;;;;;5420977;26;20610;-81
2024/04/20 05:39:16;;;;;;;12.27;2.88;;;6.20;85.20;;;;;;5425041;26;19995;-79
2024/04/20 05:41:42;;;;;;;14.32;3.35;;;6.20;85.30;;;;;;5432672;26;20006;-79
2024/04/20 05:44:08;;;;;;;11.80;2.70;;;6.20;85.40;;;;;;5434879;26;19999;-79
2024/04/20 05:46:33;;;;;;;9.18;3.03;;;6.20;85.60;;;;;;5401380;26;20342;-79
2024/04/20 05:48:59;;;;;;;13.40;4.15;;;6.20;85.70;;;;;;5433492;26;20007;-78
2024/04/20 05:51:25;;;;;;;18.77;4.00;;;6.20;85.70;;;;;;5428374;26;20003;-79
2024/04/20 05:53:50;;;;;;;12.85;3.17;;;6.20;85.60;;;;;;5431971;26;20003;-78
2024/04/20 05:56:18;;;;;;;16.08;4.10;;;6.30;85.70;;;;;;5428915;26;20056;-79
2024/04/20 05:58:47;;;;;;;26.00;9.27;;;6.30;85.70;;;;;;5432675;26;19998;-78
2024/04/20 06:01:12;;;;;;;18.70;7.07;;;6.40;85.70;;;;;;5428129;26;20003;-80
2024/04/20 06:03:38;;;;;;;12.90;3.70;;;6.40;85.80;;;;;;5431317;26;19995;-78
2024/04/20 06:06:04;;;;;;;15.82;6.03;;;6.40;85.80;;;;;;5430057;26;19999;-78
2024/04/20 06:08:30;;;;;;;18.20;5.82;;;6.60;85.90;;;;;;5430471;26;20014;-78
2024/04/20 06:10:57;;;;;;;16.85;4.07;;;6.60;86.10;;;;;;5428854;26;20068;-78
2024/04/20 06:13:23;;;;;;;15.05;5.05;;;6.60;86.20;;;;;;5433158;26;20540;-78
2024/04/20 06:15:48;;;;;;;14.38;3.53;;;6.60;86.20;;;;;;5421975;26;19995;-78
2024/04/20 06:18:14;;;;;;;14.77;3.65;;;6.70;86.20;;;;;;5429912;26;19999;-79
2024/04/20 06:20:42;;;;;;;14.43;2.90;;;6.70;86.10;;;;;;5422891;26;20157;-78
2024/04/20 06:23:08;;;;;;;14.02;3.38;;;6.90;86.00;;;;;;5399719;26;20009;-79
2024/04/20 06:25:34;;;;;;;11.45;3.08;;;6.90;85.70;;;;;;5433448;26;20161;-78
2024/04/20 06:28:00;;;;;;;14.60;3.58;;;7.10;85.10;;;;;;5410815;26;19995;-78
2024/04/20 06:30:26;;;;;;;13.48;2.90;;;7.10;85.10;;;;;;5428870;26;20022;-79
2024/04/20 06:32:52;;;;;;;12.60;2.83;;;7.20;84.70;;;;;;5425969;26;20032;-78
2024/04/20 06:35:18;;;;;;;10.40;2.55;;;7.30;84.60;;;;;;5441924;26;20875;-78
2024/04/20 06:37:44;;;;;;;12.88;2.95;;;7.40;84.20;;;;;;5418893;26;20483;-79
2024/04/20 06:40:10;;;;;;;9.63;2.28;;;7.50;84.20;;;;;;5427563;26;20042;-78
2024/04/20 06:42:39;;;;;;;15.18;2.97;;;7.50;83.50;;;;;;5423242;26;20016;-78
2024/04/20 06:45:05;;;;;;;8.13;2.13;;;7.60;83.70;;;;;;5395527;26;20129;-79
2024/04/20 06:47:31;;;;;;;18.52;5.05;;;7.60;83.90;;;;;;5430032;26;19995;-78
2024/04/20 06:49:56;;;;;;;11.23;3.05;;;7.80;83.60;;;;;;5412794;26;20375;-79
2024/04/20 06:52:23;;;;;;;13.32;2.90;;;7.90;83.00;;;;;;5424694;26;19999;-78
2024/04/20 06:54:51;;;;;;;10.70;2.65;;;8.00;82.30;;;;;;5432198;26;20014;-79
2024/04/20 06:57:17;;;;;;;9.60;2.13;;;8.00;81.90;;;;;;5421172;26;19999;-79
2024/04/20 06:59:43;;;;;;;7.70;2.28;;;8.00;82.00;;;;;;5428349;26;19999;-79
2024/04/20 07:02:09;;;;;;;12.48;2.70;;;8.00;81.20;;;;;;5430237;26;20076;-78
2024/04/20 07:04:34;;;;;;;19.60;5.07;;;8.10;81.10;;;;;;5434837;26;20023;-79
2024/04/20 07:07:00;;;;;;;17.00;3.35;;;8.00;81.10;;;;;;5434975;26;20014;-79
2024/04/20 07:09:25;;;;;;;18.50;2.78;;;7.90;81.00;;;;;;5418058;26;20484;-79
2024/04/20 07:11:51;;;;;;;12.55;2.58;;;7.90;80.90;;;;;;5431704;26;19998;-79
2024/04/20 07:14:17;;;;;;;15.85;3.00;;;7.80;80.90;;;;;;5399413;26;20397;-78
2024/04/20 07:16:46;;;;;;;14.63;3.00;;;7.80;81.70;;;;;;5427781;26;20010;-80
2024/04/20 07:19:12;;;;;;;12.55;3.13;;;7.50;83.00;;;;;;5400494;26;20009;-79
2024/04/20 07:21:38;;;;;;;16.95;3.47;;;7.50;83.60;;;;;;5430591;26;20076;-79
2024/04/20 07:24:07;;;;;;;13.13;3.88;;;7.50;84.30;;;;;;5389871;26;20033;-78
2024/04/20 07:26:36;;;;;;;15.32;3.35;;;7.50;84.60;;;;;;5431980;26;20058;-78
2024/04/20 07:29:03;;;;;;;10.77;3.38;;;7.40;84.80;;;;;;5427513;26;20051;-77
2024/04/20 07:31:29;;;;;;;11.77;3.20;;;7.30;85.40;;;;;;5426607;26;20010;-78
2024/04/20 07:33:55;;;;;;;12.38;3.17;;;7.30;85.30;;;;;;5435455;26;20029;-79
2024/04/20 07:36:20;;;;;;;10.95;2.83;;;7.50;85.40;;;;;;5429497;26;20080;-78
2024/04/20 07:38:46;;;;;;;12.35;2.67;;;7.80;85.70;;;;;;5419813;26;20052;-78
2024/04/20 07:41:12;;;;;;;13.63;3.05;;;8.10;85.50;;;;;;5418650;26;20003;-79
2024/04/20 07:43:40;;;;;;;17.02;3.03;;;8.20;84.20;;;;;;5431585;26;20654;-78
2024/04/20 07:46:05;;;;;;;13.27;3.15;;;8.40;84.20;;;;;;5416671;26;20071;-78
2024/04/20 07:48:33;;;;;;;16.77;3.47;;;8.20;83.10;;;;;;5412681;26;20011;-78
2024/04/20 07:50:59;;;;;;;14.90;3.28;;;8.20;82.90;;;;;;5431033;26;20005;-78
2024/04/20 07:53:25;;;;;;;16.33;3.17;;;8.20;82.80;;;;;;5398489;26;19995;-78
2024/04/20 07:55:51;;;;;;;17.58;3.53;;;8.20;82.80;;;;;;5419248;26;20022;-78
2024/04/20 07:58:17;;;;;;;18.58;5.03;;;8.30;81.80;;;;;;5425229;26;19999;-78
2024/04/20 08:00:42;;;;;;;12.40;3.05;;;8.50;82.40;;;;;;5429400;26;20296;-80
2024/04/20 08:03:08;;;;;;;11.93;2.75;;;8.50;81.60;;;;;;5425448;26;20046;-77
2024/04/20 08:05:34;;;;;;;19.65;4.38;;;8.60;81.70;;;;;;5425501;26;20009;-78
2024/04/20 08:07:59;;;;;;;12.10;3.28;;;8.60;81.70;;;;;;5426083;26;19999;-78
2024/04/20 08:10:25;;;;;;;16.48;3.90;;;8.70;81.90;;;;;;5432838;26;19998;-79
2024/04/20 08:12:51;;;;;;;10.85;2.50;;;8.90;82.50;;;;;;5401000;26;20392;-79
2024/04/20 08:15:16;;;;;;;19.27;3.92;;;8.70;82.40;;;;;;5447533;26;19998;-79
2024/04/20 08:17:42;;;;;;;12.20;3.58;;;8.50;82.50;;;;;;5431690;26;20018;-78
2024/04/20 08:20:08;;;;;;;14.27;3.58;;;7.70;82.20;;;;;;5435221;26;20106;-79
2024/04/20 08:22:34;;;;;;;18.05;3.80;;;7.50;82.90;;;;;;5430256;26;20018;-79
2024/04/20 08:25:00;;;;;;;15.40;3.65;;;7.50;83.90;;;;;;5397721;26;20009;-79
2024/04/20 08:27:25;;;;;;;12.27;3.92;;;7.30;82.90;;;;;;5427026;26;20003;-79
2024/04/20 08:29:51;;;;;;;17.65;3.15;;;7.40;83.60;;;;;;5414109;26;20009;-78
2024/04/20 08:32:17;;;;;;;17.42;4.00;;;7.50;83.90;;;;;;5388518;26;20641;-79
2024/04/20 08:34:42;;;;;;;10.77;3.00;;;7.60;82.50;;;;;;5437128;26;20003;-79
2024/04/20 08:37:08;;;;;;;14.85;3.70;;;7.80;83.00;;;;;;5419396;26;20015;-78
2024/04/20 08:39:35;;;;;;;14.10;3.58;;;8.00;82.90;;;;;;5428205;26;20344;-77
2024/04/20 08:42:08;;;;;;;14.70;3.38;;;8.10;82.60;;;;;;5429746;26;19995;-77
2024/04/20 08:44:34;;;;;;;16.70;3.13;;;8.20;81.60;;;;;;5429006;26;19999;-78
2024/04/20 08:47:02;;;;;;;19.88;3.58;;;8.20;81.30;;;;;;5402253;26;20021;-78
2024/04/20 08:49:29;;;;;;;15.93;4.10;;;8.30;80.90;;;;;;5408314;26;20007;-78
2024/04/20 08:51:55;;;;;;;16.02;4.00;;;8.40;80.50;;;;;;5400502;26;20099;-78
2024/04/20 08:54:22;;;;;;;16.38;4.07;;;8.50;80.10;;;;;;5432027;26;19999;-79
2024/04/20 08:56:48;;;;;;;15.60;3.80;;;8.60;80.00;;;;;;5403742;26;20009;-79
2024/04/20 08:59:14;;;;;;;14.63;3.13;;;8.70;79.60;;;;;;5429078;26;19999;-79
2024/04/20 09:01:41;;;;;;;13.07;3.25;;;8.80;77.10;;;;;;5430062;26;20064;-79
2024/04/20 09:04:07;;;;;;;14.27;3.03;;;8.80;72.90;;;;;;5429665;26;20020;-79
2024/04/20 09:06:37;;;;;;;17.65;3.30;;;8.90;72.70;;;;;;5432250;26;20002;-79
2024/04/20 09:09:04;;;;;;;14.95;3.05;;;9.00;72.20;;;;;;5404965;26;20010;-78
2024/04/20 09:11:30;;;;;;;12.93;3.15;;;9.10;72.80;;;;;;5420122;26;20002;-77
2024/04/20 09:13:56;;;;;;;15.35;2.78;;;9.30;71.70;;;;;;5448972;26;20013;-79
2024/04/20 09:16:22;;;;;;;13.45;3.33;;;9.40;70.60;;;;;;5438029;26;19999;-79
2024/04/20 09:18:48;;;;;;;20.13;3.65;;;9.40;70.50;;;;;;5406310;26;19996;-78
2024/04/20 09:21:14;;;;;;;17.38;3.20;;;9.50;71.00;;;;;;5407812;26;20728;-79
2024/04/20 09:23:42;;;;;;;15.85;3.63;;;9.50;69.70;;;;;;5406994;26;20079;-80
2024/04/20 09:26:08;;;;;;;14.10;2.67;;;9.60;70.20;;;;;;5430354;26;20346;-80
2024/04/20 09:28:34;;;;;;;15.30;2.75;;;9.60;69.60;;;;;;5426729;26;20130;-80
2024/04/20 09:31:00;;;;;;;14.73;2.75;;;9.70;69.50;;;;;;5441378;26;20067;-80
2024/04/20 09:33:26;;;;;;;13.52;3.10;;;9.80;67.80;;;;;;5444664;26;20114;-80
2024/04/20 09:35:53;;;;;;;13.45;2.78;;;9.70;65.90;;;;;;5425508;26;20467;-80
2024/04/20 09:38:19;;;;;;;11.98;2.20;;;9.80;66.40;;;;;;5387636;26;19995;-80
2024/04/20 09:40:47;;;;;;;10.63;2.33;;;9.70;65.70;;;;;;5409101;26;20027;-80
2024/04/20 09:43:14;;;;;;;11.73;2.53;;;9.90;67.00;;;;;;5433262;26;19999;-80
2024/04/20 09:45:41;;;;;;;12.45;2.80;;;9.90;66.80;;;;;;5405118;26;19999;-80
2024/04/20 09:48:12;;;;;;;13.27;2.92;;;9.90;67.40;;;;;;5433085;26;20018;-80
2024/04/20 09:50:41;;;;;;;15.90;2.63;;;9.90;67.20;;;;;;5404302;26;20696;-79
2024/04/20 09:53:33;;;;;;;12.23;2.95;;;9.80;67.30;;;;;;5403453;26;20011;-79
2024/04/20 09:56:02;;;;;;;17.77;2.97;;;9.80;68.50;;;;;;5407945;26;20036;-80
2024/04/20 09:58:29;;;;;;;11.00;3.05;;;9.70;68.80;;;;;;5427239;26;20006;-79
2024/04/20 10:00:56;;;;;;;12.75;2.97;;;9.60;67.90;;;;;;5427696;26;21786;-80
2024/04/20 10:03:23;;;;;;;13.68;2.38;;;9.70;69.20;;;;;;5430525;26;20006;-80
2024/04/20 10:05:54;;;;;;;15.80;3.83;;;9.80;69.50;;;;;;5445903;26;20009;-79
2024/04/20 10:08:21;;;;;;;16.85;3.42;;;9.80;70.90;;;;;;5428575;26;20003;-81
2024/04/20 10:10:46;;;;;;;17.35;2.95;;;9.80;71.60;;;;;;5395206;26;20106;-81
2024/04/20 10:13:14;;;;;;;14.50;3.03;;;9.70;71.80;;;;;;5410191;26;20399;-80
2024/04/20 10:15:44;;;;;;;16.58;3.55;;;9.30;71.90;;;;;;5436875;26;20455;-81
2024/04/20 10:18:10;;;;;;;13.50;2.40;;;9.30;73.10;;;;;;5425238;26;20006;-81
2024/04/20 10:20:37;;;;;;;16.60;3.75;;;9.40;72.40;;;;;;5413263;26;20003;-81
2024/04/20 10:23:15;;;;;;;18.45;3.70;;;9.40;71.80;;;;;;5415167;26;19995;-82
2024/04/20 10:25:41;;;;;;;15.02;2.88;;;9.20;70.90;;;;;;5395734;26;20027;-81
2024/04/20 10:28:06;;;;;;;15.07;3.08;;;9.20;71.90;;;;;;5413153;26;20045;-81
2024/04/20 10:30:32;;;;;;;15.70;3.05;;;9.10;72.30;;;;;;5387440;26;19999;-81
2024/04/20 10:33:06;;;;;;;15.57;3.20;;;8.90;73.30;;;;;;5433304;26;20091;-80
2024/04/20 10:35:32;;;;;;;11.10;2.53;;;8.90;74.20;;;;;;5411997;26;20002;-80
2024/04/20 10:38:03;;;;;;;9.38;2.40;;;8.90;75.50;;;;;;5447672;26;19995;-82
2024/04/20 10:40:31;;;;;;;10.88;2.47;;;8.60;75.30;;;;;;5434849;26;20122;-79
2024/04/20 10:43:07;;;;;;;11.05;2.25;;;8.50;76.70;;;;;;5413220;26;19998;-80
2024/04/20 10:45:32;;;;;;;9.82;2.70;;;8.60;77.60;;;;;;5399578;26;19999;-81
2024/04/20 10:47:58;;;;;;;11.45;2.70;;;8.70;77.40;;;;;;5397422;26;20471;-80
2024/04/20 10:50:24;;;;;;;13.65;2.70;;;8.80;77.30;;;;;;5430337;26;20002;-82
2024/04/20 10:52:50;;;;;;;13.25;2.85;;;8.90;77.10;;;;;;5435445;26;20141;-80
2024/04/20 10:55:15;;;;;;;13.05;2.72;;;8.80;76.70;;;;;;5439988;26;20011;-81
2024/04/20 10:57:42;;;;;;;12.57;2.65;;;8.90;76.60;;;;;;5399404;26;20079;-83
2024/04/20 11:00:09;;;;;;;11.15;2.80;;;8.90;75.20;;;;;;5431134;26;19999;-84
2024/04/20 11:02:36;;;;;;;11.65;2.58;;;9.00;75.70;;;;;;5421678;26;20450;-81
2024/04/20 11:05:05;;;;;;;10.75;2.67;;;9.00;75.50;;;;;;5429964;26;19998;-81
2024/04/20 11:07:31;;;;;;;15.43;3.33;;;9.00;75.00;;;;;;5427687;26;19998;-80
2024/04/20 11:09:57;;;;;;;15.73;2.45;;;9.00;74.10;;;;;;5418751;26;20448;-80
2024/04/20 11:12:22;;;;;;;10.18;2.17;;;9.00;73.50;;;;;;5428943;26;20002;-81
2024/04/20 11:15:00;;;;;;;11.50;2.47;;;9.10;73.10;;;;;;5429760;26;20014;-80
2024/04/20 11:17:27;;;;;;;10.70;2.97;;;9.20;72.80;;;;;;5410867;26;20026;-81
2024/04/20 11:19:53;;;;;;;11.00;2.50;;;9.40;72.00;;;;;;5431351;26;19994;-81
2024/04/20 11:22:19;;;;;;;11.98;2.70;;;9.70;72.40;;;;;;5420808;26;20567;-81
2024/04/20 11:24:46;;;;;;;6.78;2.10;;;10.30;72.10;;;;;;5402241;26;20014;-82
2024/04/20 11:27:14;;;;;;;12.05;2.20;;;10.50;69.90;;;;;;5430737;26;19995;-82
2024/04/20 11:29:41;;;;;;;10.02;2.55;;;10.60;69.70;;;;;;5438530;26;19999;-81
2024/04/20 11:32:07;;;;;;;9.15;2.28;;;10.40;69.40;;;;;;5412993;26;20059;-79
2024/04/20 11:34:32;;;;;;;9.15;2.28;;;10.40;69.60;;;;;;5438771;26;20042;-82
2024/04/20 11:36:59;;;;;;;9.50;2.42;;;10.40;69.80;;;;;;5428844;26;20694;-81
2024/04/20 11:39:25;;;;;;;12.88;2.70;;;10.40;70.20;;;;;;5435303;26;20007;-82
2024/04/20 11:41:50;;;;;;;9.75;2.30;;;10.30;71.40;;;;;;5412383;26;20543;-81
2024/04/20 11:44:18;;;;;;;14.57;2.35;;;9.90;71.70;;;;;;5426862;26;19999;-81
2024/04/20 11:46:47;;;;;;;9.65;2.75;;;9.60;73.80;;;;;;5429849;26;20014;-81
2024/04/20 11:49:13;;;;;;;11.45;2.88;;;9.30;75.30;;;;;;5398735;26;20009;-80
2024/04/20 11:54:25;;;;;;;7.93;2.33;;;8.80;77.90;;;;;;5432222;26;19991;-82
2024/04/20 11:56:55;;;;;;;13.75;3.45;;;9.10;77.50;;;;;;5397612;26;19999;-83
2024/04/20 11:59:24;;;;;;;9.60;2.17;;;9.20;76.60;;;;;;5428064;26;20431;-81
2024/04/20 12:01:50;;;;;;;8.90;2.10;;;9.60;76.50;;;;;;5424790;26;20007;-81
2024/04/20 12:04:16;;;;;;;11.63;2.55;;;9.90;74.00;;;;;;5426903;26;20017;-82
2024/04/20 12:06:42;;;;;;;7.97;1.88;;;10.30;74.80;;;;;;5428562;26;19999;-82
2024/04/20 12:09:08;;;;;;;9.30;2.42;;;10.40;72.30;;;;;;5406898;26;20317;-81
2024/04/20 12:11:33;;;;;;;10.13;2.58;;;10.60;68.90;;;;;;5429717;26;20465;-80
2024/04/20 12:14:00;;;;;;;9.65;2.22;;;11.00;72.10;;;;;;5402368;26;20409;-83
2024/04/20 12:16:26;;;;;;;13.23;4.28;;;11.40;70.50;;;;;;5430245;26;19994;-80
2024/04/20 12:18:52;;;;;;;12.52;2.83;;;11.30;69.40;;;;;;5426465;26;20588;-81
2024/04/20 12:21:18;;;;;;;10.55;2.80;;;11.20;69.50;;;;;;5419930;26;20078;-82
2024/04/20 12:23:44;;;;;;;7.55;2.10;;;11.40;69.90;;;;;;5424748;26;19999;-82
2024/04/20 12:26:11;;;;;;;12.88;2.60;;;11.80;69.30;;;;;;5425497;26;20014;-82
2024/04/20 12:28:37;;;;;;;14.50;2.65;;;12.10;67.00;;;;;;5417291;26;20044;-80
2024/04/20 12:31:04;;;;;;;10.60;2.55;;;11.60;68.80;;;;;;5426942;26;20038;-82
2024/04/20 12:33:31;;;;;;;11.20;2.55;;;11.50;69.70;;;;;;5427131;26;19991;-81
2024/04/20 12:35:56;;;;;;;11.68;2.42;;;11.20;70.30;;;;;;5424431;26;20002;-81
2024/04/20 12:38:26;;;;;;;8.90;2.35;;;11.10;66.80;;;;;;5406635;26;19999;-81
2024/04/20 12:40:53;;;;;;;13.75;2.50;;;11.20;67.10;;;;;;5431644;26;20050;-80
2024/04/20 12:43:18;;;;;;;12.10;2.40;;;11.40;67.10;;;;;;5405638;26;19999;-82
2024/04/20 12:45:44;;;;;;;9.98;2.22;;;11.40;66.10;;;;;;5437800;26;19999;-82